createdAt,value
2023-04-21T00:01:59.306Z,9.00
2023-04-21T00:04:26.751Z,9.32
2023-04-21T00:06:54.616Z,8.60
2023-04-21T00:09:22.381Z,8.18
2023-04-21T00:11:49.372Z,8.75
2023-04-21T00:14:16.355Z,8.98
2023-04-21T00:16:43.335Z,9.05
2023-04-21T00:19:10.586Z,8.73
2023-04-21T00:21:37.717Z,9.27
2023-04-21T00:24:05.462Z,9.45
2023-04-21T00:26:32.452Z,8.65
2023-04-21T00:28:59.438Z,8.20
2023-04-21T00:31:26.483Z,9.00
2023-04-21T00:33:54.043Z,9.05
2023-04-21T00:36:21.207Z,9.18
2023-04-21T00:38:48.175Z,7.88
2023-04-21T00:41:15.168Z,8.70
2023-04-21T00:44:05.465Z,8.40
2023-04-21T00:46:34.216Z,8.50
2023-04-21T00:49:06.282Z,7.97
2023-04-21T00:51:35.386Z,9.68
2023-04-21T00:54:07.677Z,8.88
2023-04-21T00:56:36.709Z,8.27
2023-04-21T00:59:04.310Z,8.00
2023-04-21T01:01:36.579Z,8.07
2023-04-21T01:04:05.358Z,8.40
2023-04-21T01:06:36.715Z,8.25
2023-04-21T01:09:06.769Z,7.50
2023-04-21T01:11:34.467Z,8.30
2023-04-21T01:14:01.505Z,8.53
2023-04-21T01:16:29.677Z,8.20
2023-04-21T01:18:57.193Z,8.60
2023-04-21T01:21:24.193Z,8.83
2023-04-21T01:23:51.557Z,7.85
2023-04-21T01:26:21.691Z,7.63
2023-04-21T01:28:49.093Z,7.85
2023-04-21T01:31:17.663Z,7.87
2023-04-21T01:33:45.679Z,7.50
2023-04-21T01:36:12.935Z,8.50
2023-04-21T01:38:43.148Z,7.53
2023-04-21T01:41:10.876Z,7.57
2023-04-21T01:43:38.603Z,7.30
2023-04-21T01:46:07.269Z,8.40
2023-04-21T01:48:34.453Z,8.07
2023-04-21T01:51:01.438Z,7.60
2023-04-21T01:53:28.492Z,7.63
2023-04-21T01:55:56.536Z,7.43
2023-04-21T01:58:23.540Z,7.30
2023-04-21T02:00:50.563Z,7.07
2023-04-21T02:03:17.726Z,7.60
2023-04-21T02:05:44.916Z,7.50
2023-04-21T02:08:11.950Z,7.23
2023-04-21T02:10:38.993Z,7.37
2023-04-21T02:13:06.053Z,7.60
2023-04-21T02:15:33.683Z,7.03
2023-04-21T02:18:00.779Z,8.63
2023-04-21T02:20:27.978Z,7.57
2023-04-21T02:22:54.949Z,7.47
2023-04-21T02:25:21.949Z,6.90
2023-04-21T02:27:48.937Z,7.10
2023-04-21T02:30:16.450Z,7.73
2023-04-21T02:32:43.713Z,7.10
2023-04-21T02:35:10.989Z,7.60
2023-04-21T02:37:38.061Z,7.30
2023-04-21T02:40:06.669Z,7.23
2023-04-21T02:42:34.944Z,8.10
2023-04-21T02:45:02.107Z,7.63
2023-04-21T02:47:29.212Z,6.33
2023-04-21T02:49:56.248Z,6.90
2023-04-21T02:52:23.278Z,7.43
2023-04-21T02:54:50.504Z,7.43
2023-04-21T02:57:17.498Z,6.85
2023-04-21T02:59:44.532Z,7.27
2023-04-21T03:02:11.634Z,6.63
2023-04-21T03:04:39.428Z,6.80
2023-04-21T03:07:11.369Z,6.70
2023-04-21T03:09:38.380Z,6.50
2023-04-21T03:12:05.517Z,7.10
2023-04-21T03:14:32.530Z,7.10
2023-04-21T03:16:59.615Z,6.97
2023-04-21T03:19:26.682Z,7.23
2023-04-21T03:21:53.637Z,6.83
2023-04-21T03:24:21.496Z,7.67
2023-04-21T03:26:48.477Z,7.33
2023-04-21T03:29:15.586Z,6.53
2023-04-21T03:31:42.744Z,6.83
2023-04-21T03:34:09.763Z,7.00
2023-04-21T03:36:36.759Z,6.33
2023-04-21T03:39:18.824Z,6.83
2023-04-21T03:41:47.140Z,6.00
2023-04-21T03:44:14.126Z,6.83
2023-04-21T03:46:41.111Z,6.63
2023-04-21T03:49:08.140Z,6.97
2023-04-21T03:51:35.070Z,6.10
2023-04-21T03:54:02.074Z,5.57
2023-04-21T03:56:29.064Z,5.53
2023-04-21T03:58:56.146Z,6.28
2023-04-21T04:01:23.186Z,5.70
2023-04-21T04:03:50.960Z,6.00
2023-04-21T04:06:18.277Z,5.95
2023-04-21T04:08:45.278Z,5.28
2023-04-21T04:11:12.250Z,6.10
2023-04-21T04:13:39.354Z,5.80
2023-04-21T04:16:07.073Z,5.38
2023-04-21T04:18:34.107Z,5.90
2023-04-21T04:21:07.547Z,5.90
2023-04-21T04:23:35.504Z,6.20
2023-04-21T04:26:05.615Z,6.90
2023-04-21T04:28:33.702Z,5.65
2023-04-21T04:31:01.111Z,5.93
2023-04-21T04:33:28.081Z,6.03
2023-04-21T04:35:55.098Z,6.32
2023-04-21T04:38:23.139Z,6.20
2023-04-21T04:40:58.897Z,5.95
2023-04-21T04:43:25.857Z,6.28
2023-04-21T04:45:53.398Z,5.88
2023-04-21T04:48:20.476Z,5.88
2023-04-21T04:50:47.612Z,5.95
2023-04-21T04:53:14.696Z,5.07
2023-04-21T04:55:41.682Z,5.07
2023-04-21T04:58:08.677Z,5.18
2023-04-21T05:00:37.099Z,5.18
2023-04-21T05:03:04.434Z,5.45
2023-04-21T05:05:31.645Z,5.47
2023-04-21T05:07:58.703Z,5.70
2023-04-21T05:10:25.814Z,6.60
2023-04-21T05:12:52.831Z,5.05
2023-04-21T05:15:19.900Z,5.68
2023-04-21T05:17:46.899Z,4.90
2023-04-21T05:20:15.021Z,5.57
2023-04-21T05:22:42.148Z,5.18
2023-04-21T05:25:15.877Z,6.10
2023-04-21T05:27:43.625Z,5.40
2023-04-21T05:30:11.317Z,5.63
2023-04-21T05:32:39.295Z,5.40
2023-04-21T05:35:07.001Z,5.05
2023-04-21T05:37:34.044Z,5.55
2023-04-21T05:40:01.113Z,5.82
2023-04-21T05:42:28.282Z,5.28
2023-04-21T05:44:55.345Z,5.82
2023-04-21T05:47:22.456Z,5.13
2023-04-21T05:49:53.779Z,5.38
2023-04-21T05:52:23.860Z,5.78
2023-04-21T05:54:50.966Z,5.32
2023-04-21T05:57:18.026Z,5.53
2023-04-21T05:59:45.140Z,5.10
2023-04-21T06:02:12.563Z,4.60
2023-04-21T06:04:39.933Z,5.55
2023-04-21T06:07:09.146Z,5.35
2023-04-21T06:09:36.839Z,5.03
2023-04-21T06:12:04.384Z,5.07
2023-04-21T06:14:31.511Z,4.45
2023-04-21T06:16:58.978Z,4.78
2023-04-21T06:19:26.083Z,5.07
2023-04-21T06:21:53.143Z,5.13
2023-04-21T06:24:25.228Z,4.57
2023-04-21T06:26:53.485Z,4.80
2023-04-21T06:29:21.078Z,5.07
2023-04-21T06:31:48.379Z,4.47
2023-04-21T06:34:15.972Z,4.80
2023-04-21T06:36:43.005Z,4.53
2023-04-21T06:39:09.991Z,5.13
2023-04-21T06:41:37.119Z,4.15
2023-04-21T06:44:04.179Z,4.63
2023-04-21T06:46:31.415Z,9.60
2023-04-21T06:48:58.671Z,4.72
2023-04-21T06:51:25.679Z,3.95
2023-04-21T06:53:52.679Z,5.20
2023-04-21T06:56:19.642Z,4.57
2023-04-21T06:58:47.102Z,4.43
2023-04-21T07:01:14.135Z,4.40
2023-04-21T07:03:41.450Z,3.97
2023-04-21T07:06:08.796Z,3.80
2023-04-21T07:08:35.919Z,4.45
2023-04-21T07:11:03.122Z,4.05
2023-04-21T07:13:30.433Z,3.97
2023-04-21T07:15:57.558Z,4.78
2023-04-21T07:18:24.570Z,4.25
2023-04-21T07:20:51.652Z,3.97
2023-04-21T07:23:18.982Z,4.30
2023-04-21T07:25:46.024Z,3.90
2023-04-21T07:28:15.176Z,3.95
2023-04-21T07:30:42.321Z,4.50
2023-04-21T07:33:09.567Z,4.40
2023-04-21T07:35:36.635Z,4.07
2023-04-21T07:38:03.836Z,4.45
2023-04-21T07:40:31.264Z,3.58
2023-04-21T07:42:58.255Z,4.00
2023-04-21T07:45:26.471Z,3.65
2023-04-21T07:47:53.592Z,3.50
2023-04-21T07:50:20.623Z,3.58
2023-04-21T07:52:48.210Z,3.53
2023-04-21T07:55:15.683Z,3.95
2023-04-21T07:57:42.762Z,3.80
2023-04-21T08:00:10.899Z,3.45
2023-04-21T08:02:38.015Z,3.35
2023-04-21T08:05:05.749Z,3.13
2023-04-21T08:07:32.898Z,3.00
2023-04-21T08:10:00.321Z,3.20
2023-04-21T08:12:27.543Z,3.00
2023-04-21T08:14:57.317Z,3.05
2023-04-21T08:17:24.434Z,3.50
2023-04-21T08:19:52.158Z,3.33
2023-04-21T08:22:19.195Z,2.70
2023-04-21T08:24:46.214Z,3.00
2023-04-21T08:27:13.325Z,2.70
2023-04-21T08:29:40.365Z,2.63
2023-04-21T08:32:07.652Z,3.13
2023-04-21T08:34:35.075Z,2.92
2023-04-21T08:37:02.170Z,3.72
2023-04-21T08:39:30.568Z,2.70
2023-04-21T08:41:59.172Z,2.90
2023-04-21T08:44:26.704Z,2.47
2023-04-21T08:46:55.980Z,2.38
2023-04-21T08:49:24.368Z,2.70
2023-04-21T08:51:51.423Z,2.72
2023-04-21T08:54:18.506Z,3.33
2023-04-21T08:56:45.564Z,2.88
2023-04-21T08:59:12.537Z,2.67
2023-04-21T09:02:12.105Z,2.28
2023-04-21T09:04:45.141Z,2.90
2023-04-21T09:07:29.770Z,2.72
2023-04-21T09:09:58.231Z,3.45
2023-04-21T09:12:25.312Z,3.17
2023-04-21T09:14:52.358Z,3.05
2023-04-21T09:17:27.440Z,2.67
2023-04-21T09:19:54.473Z,2.83
2023-04-21T09:22:26.645Z,3.00
2023-04-21T09:25:02.702Z,2.60
2023-04-21T09:27:29.797Z,3.13
2023-04-21T09:30:04.598Z,2.88
2023-04-21T09:32:38.129Z,2.47
2023-04-21T09:35:09.764Z,2.40
2023-04-21T09:37:38.143Z,2.50
2023-04-21T09:40:06.608Z,2.90
2023-04-21T09:42:37.845Z,2.92
2023-04-21T09:45:28.857Z,3.38
2023-04-21T09:48:00.793Z,2.67
2023-04-21T09:53:04.066Z,3.03
2023-04-21T09:55:33.432Z,3.08
2023-04-21T09:58:02.019Z,2.92
2023-04-21T10:00:31.123Z,3.08
2023-04-21T10:03:00.910Z,2.67
2023-04-21T10:05:29.439Z,2.95
2023-04-21T10:07:57.954Z,2.80
2023-04-21T10:10:34.819Z,2.60
2023-04-21T10:13:02.793Z,2.60
2023-04-21T10:15:41.527Z,2.83
2023-04-21T10:18:29.320Z,2.58
2023-04-21T10:21:04.975Z,2.70
2023-04-21T10:23:42.035Z,2.65
2023-04-21T10:26:32.576Z,2.75
2023-04-21T10:29:06.047Z,2.92
2023-04-21T10:31:36.619Z,2.40
2023-04-21T10:34:09.245Z,2.33
2023-04-21T10:36:44.117Z,2.47
2023-04-21T10:39:16.459Z,2.40
2023-04-21T10:41:46.340Z,2.13
2023-04-21T10:44:16.056Z,3.15
2023-04-21T10:46:52.232Z,2.55
2023-04-21T10:49:30.139Z,2.50
2023-04-21T10:52:00.302Z,2.53
2023-04-21T10:54:52.573Z,2.30
2023-04-21T10:57:20.708Z,2.55
2023-04-21T10:59:49.644Z,2.75
2023-04-21T11:02:19.342Z,2.47
2023-04-21T11:04:52.664Z,2.47
2023-04-21T11:07:24.594Z,2.30
2023-04-21T11:10:07.401Z,2.25
2023-04-21T11:12:41.450Z,2.47
2023-04-21T11:15:11.348Z,2.58
2023-04-21T11:17:39.920Z,2.47
2023-04-21T11:20:08.528Z,2.35
2023-04-21T11:22:37.805Z,2.35
2023-04-21T11:25:05.601Z,3.08
2023-04-21T11:27:32.700Z,2.67
2023-04-21T11:30:03.480Z,2.80
2023-04-21T11:32:31.320Z,2.55
2023-04-21T11:34:58.445Z,3.00
2023-04-21T11:37:27.932Z,2.70
2023-04-21T11:40:00.416Z,2.63
2023-04-21T11:42:28.565Z,2.75
2023-04-21T11:44:56.735Z,2.95
2023-04-21T11:47:27.174Z,2.55
2023-04-21T11:50:01.017Z,2.78
2023-04-21T11:52:33.194Z,4.80
2023-04-21T11:55:06.234Z,2.83
2023-04-21T11:57:34.259Z,2.45
2023-04-21T12:00:07.904Z,2.92
2023-04-21T12:02:35.148Z,2.92
2023-04-21T12:05:13.455Z,2.85
2023-04-21T12:07:52.026Z,2.55
2023-04-21T12:10:21.214Z,2.50
2023-04-21T12:12:49.084Z,2.42
2023-04-21T12:15:23.094Z,2.70
2023-04-21T12:17:55.450Z,2.60
2023-04-21T12:20:26.498Z,2.30
2023-04-21T12:22:53.572Z,2.35
2023-04-21T12:25:20.716Z,2.25
2023-04-21T12:27:58.452Z,2.47
2023-04-21T12:30:25.620Z,2.50
2023-04-21T12:32:54.456Z,2.67
2023-04-21T12:35:22.782Z,2.65
2023-04-21T12:37:49.770Z,2.95
2023-04-21T12:40:17.051Z,2.70
2023-04-21T12:42:43.980Z,3.00
2023-04-21T12:45:11.632Z,2.30
2023-04-21T12:47:39.400Z,2.55
2023-04-21T12:50:07.593Z,2.38
2023-04-21T12:52:34.815Z,2.63
2023-04-21T12:55:01.904Z,3.72
2023-04-21T12:57:29.272Z,2.90
2023-04-21T12:59:56.246Z,2.50
2023-04-21T13:02:23.429Z,2.80
2023-04-21T13:04:50.703Z,3.00
2023-04-21T13:07:21.394Z,2.60
2023-04-21T13:09:48.538Z,2.95
2023-04-21T13:12:15.659Z,2.33
2023-04-21T13:14:42.850Z,3.05
2023-04-21T13:17:10.192Z,2.67
2023-04-21T13:19:37.405Z,2.63
2023-04-21T13:22:04.517Z,2.65
2023-04-21T13:24:31.658Z,2.38
2023-04-21T13:26:59.543Z,2.40
2023-04-21T13:29:30.378Z,2.65
2023-04-21T13:31:57.509Z,3.17
2023-04-21T13:34:24.747Z,2.78
2023-04-21T13:36:51.911Z,2.60
2023-04-21T13:39:19.013Z,2.55
2023-04-21T13:41:46.112Z,2.80
2023-04-21T13:44:13.172Z,2.67
2023-04-21T13:46:40.378Z,3.05
2023-04-21T13:49:07.679Z,2.92
2023-04-21T13:51:35.576Z,3.08
2023-04-21T13:54:02.784Z,2.92
2023-04-21T13:56:29.891Z,3.67
2023-04-21T13:58:57.126Z,3.10
2023-04-21T14:01:24.324Z,2.65
2023-04-21T14:03:51.837Z,2.95
2023-04-21T14:06:19.453Z,2.80
2023-04-21T14:08:46.591Z,2.45
2023-04-21T14:11:13.766Z,2.83
2023-04-21T14:13:48.055Z,3.40
2023-04-21T14:16:26.898Z,2.75
2023-04-21T14:18:53.990Z,2.95
2023-04-21T14:21:21.055Z,2.85
2023-04-21T14:23:48.277Z,2.80
2023-04-21T14:26:15.393Z,2.72
2023-04-21T14:28:42.606Z,3.22
2023-04-21T14:31:09.693Z,3.30
2023-04-21T14:33:36.926Z,3.75
2023-04-21T14:36:04.136Z,3.20
2023-04-21T14:38:31.220Z,2.88
2023-04-21T14:40:58.214Z,2.50
2023-04-21T14:43:25.295Z,2.50
2023-04-21T14:45:53.155Z,2.58
2023-04-21T14:48:21.353Z,2.50
2023-04-21T14:50:48.514Z,3.17
2023-04-21T14:53:15.704Z,2.42
2023-04-21T14:55:42.707Z,2.80
2023-04-21T14:58:09.738Z,2.60
2023-04-21T15:00:36.763Z,2.20
2023-04-21T15:03:04.029Z,15.13
2023-04-21T15:05:31.236Z,10.20
2023-04-21T15:07:58.229Z,2.80
2023-04-21T15:10:25.350Z,2.88
2023-04-21T15:12:52.494Z,2.78
2023-04-21T15:15:19.746Z,2.60
2023-04-21T15:17:46.789Z,3.28
2023-04-21T15:20:13.874Z,3.03
2023-04-21T15:22:41.507Z,3.28
2023-04-21T15:25:09.166Z,3.40
2023-04-21T15:27:36.955Z,2.63
2023-04-21T15:30:05.132Z,3.50
2023-04-21T15:32:32.239Z,3.40
2023-04-21T15:34:59.278Z,2.88
2023-04-21T15:37:26.332Z,3.38
2023-04-21T15:39:53.463Z,2.85
2023-04-21T15:42:20.722Z,2.65
2023-04-21T15:44:47.841Z,2.60
2023-04-21T15:47:17.034Z,2.85
2023-04-21T15:49:44.178Z,2.72
2023-04-21T15:52:11.328Z,2.97
2023-04-21T15:54:38.838Z,2.83
2023-04-21T15:57:06.366Z,2.55
2023-04-21T15:59:33.375Z,2.30
2023-04-21T16:02:00.565Z,3.20
2023-04-21T16:04:28.383Z,2.47
2023-04-21T16:06:56.208Z,2.50
2023-04-21T16:09:23.748Z,3.60
2023-04-21T16:11:51.441Z,2.70
2023-04-21T16:14:18.980Z,3.00
2023-04-21T16:16:46.198Z,2.53
2023-04-21T16:19:13.418Z,2.45
2023-04-21T16:21:40.843Z,2.50
2023-04-21T16:24:08.826Z,2.83
2023-04-21T16:26:36.734Z,2.25
2023-04-21T16:29:03.982Z,2.53
2023-04-21T16:31:31.556Z,2.38
2023-04-21T16:34:00.345Z,2.50
2023-04-21T16:36:28.474Z,2.75
2023-04-21T16:38:56.256Z,2.88
2023-04-21T16:41:23.653Z,2.72
2023-04-21T16:43:50.860Z,2.58
2023-04-21T16:46:18.412Z,2.55
2023-04-21T16:48:46.034Z,2.95
2023-04-21T16:51:13.164Z,2.55
2023-04-21T16:53:42.096Z,2.72
2023-04-21T16:56:09.772Z,2.92
2023-04-21T16:58:37.744Z,2.72
2023-04-21T17:01:07.521Z,2.42
2023-04-21T17:03:35.007Z,2.72
2023-04-21T17:06:04.647Z,2.65
2023-04-21T17:08:31.723Z,2.78
2023-04-21T17:11:00.009Z,2.88
2023-04-21T17:13:27.074Z,2.80
2023-04-21T17:15:54.227Z,2.72
2023-04-21T17:18:21.414Z,2.75
2023-04-21T17:20:48.545Z,2.60
2023-04-21T17:23:15.589Z,2.67
2023-04-21T17:25:42.739Z,2.63
2023-04-21T17:28:09.836Z,3.00
2023-04-21T17:30:36.970Z,2.90
2023-04-21T17:33:15.249Z,3.05
2023-04-21T17:35:59.920Z,2.90
2023-04-21T17:38:29.295Z,3.20
2023-04-21T17:40:56.422Z,3.85
2023-04-21T17:43:23.529Z,3.28
2023-04-21T17:45:51.637Z,2.80
2023-04-21T17:48:19.137Z,3.85
2023-04-21T17:50:46.220Z,2.95
2023-04-21T17:53:13.205Z,3.28
2023-04-21T17:55:40.396Z,3.60
2023-04-21T17:58:10.037Z,3.17
2023-04-21T18:00:38.711Z,3.35
2023-04-21T18:03:05.982Z,3.75
2023-04-21T18:05:33.781Z,3.92
2023-04-21T18:08:00.937Z,4.70
2023-04-21T18:10:29.807Z,3.33
2023-04-21T18:12:57.837Z,3.97
2023-04-21T18:15:25.148Z,3.60
2023-04-21T18:17:53.300Z,3.40
2023-04-21T18:20:20.761Z,3.72
2023-04-21T18:22:49.092Z,3.40
2023-04-21T18:25:20.156Z,3.65
2023-04-21T18:27:51.513Z,4.35
2023-04-21T18:30:18.564Z,3.90
2023-04-21T18:32:45.717Z,3.75
2023-04-21T18:35:12.776Z,4.18
2023-04-21T18:37:39.765Z,4.47
2023-04-21T18:40:07.759Z,4.10
2023-04-21T18:42:34.833Z,4.93
2023-04-21T18:45:04.257Z,4.40
2023-04-21T18:47:31.928Z,5.30
2023-04-21T18:49:59.014Z,5.32
2023-04-21T18:52:26.077Z,10.10
2023-04-21T18:54:53.082Z,11.45
2023-04-21T18:57:20.091Z,12.50
2023-04-21T18:59:47.156Z,9.68
2023-04-21T19:02:14.422Z,10.20
2023-04-21T19:04:43.850Z,7.65
2023-04-21T19:07:11.528Z,8.40
2023-04-21T19:09:38.721Z,9.00
2023-04-21T19:12:05.892Z,9.38
2023-04-21T19:14:42.452Z,9.23
2023-04-21T19:17:13.141Z,8.90
2023-04-21T19:19:40.857Z,8.85
2023-04-21T19:22:07.989Z,9.20
2023-04-21T19:24:35.457Z,8.82
2023-04-21T19:27:03.782Z,8.80
2023-04-21T19:29:31.804Z,8.25
2023-04-21T19:31:59.432Z,8.63
2023-04-21T19:34:26.918Z,8.30
2023-04-21T19:36:53.993Z,8.48
2023-04-21T19:39:21.040Z,9.63
2023-04-21T19:41:48.065Z,9.10
2023-04-21T19:44:15.047Z,10.18
2023-04-21T19:46:43.129Z,10.63
2023-04-21T19:49:14.140Z,10.90
2023-04-21T19:51:41.473Z,10.50
2023-04-21T19:54:12.157Z,9.32
2023-04-21T19:56:40.577Z,10.98
2023-04-21T19:59:07.884Z,12.40
2023-04-21T20:01:35.100Z,11.98
2023-04-21T20:04:03.750Z,13.50
2023-04-21T20:06:32.094Z,15.52
2023-04-21T20:08:59.124Z,15.68
2023-04-21T20:11:28.953Z,16.83
2023-04-21T20:13:56.329Z,14.10
2023-04-21T20:16:24.074Z,13.00
2023-04-21T20:18:51.129Z,14.05
2023-04-21T20:21:18.246Z,13.32
2023-04-21T20:23:45.300Z,12.82
2023-04-21T20:26:13.280Z,13.55
2023-04-21T20:28:40.307Z,12.85
2023-04-21T20:31:07.580Z,11.40
2023-04-21T20:33:35.030Z,10.80
2023-04-21T20:36:07.193Z,8.95
2023-04-21T20:38:35.433Z,9.80
2023-04-21T20:41:03.355Z,10.00
2023-04-21T20:43:33.341Z,9.65
2023-04-21T20:46:04.316Z,9.80
2023-04-21T20:48:31.468Z,9.73
2023-04-21T20:50:58.504Z,10.05
2023-04-21T20:53:26.181Z,9.98
2023-04-21T20:55:53.265Z,10.35
2023-04-21T20:58:20.390Z,9.70
2023-04-21T21:00:47.453Z,9.45
2023-04-21T21:03:14.940Z,9.30
2023-04-21T21:05:42.223Z,8.60
2023-04-21T21:08:09.449Z,10.32
2023-04-21T21:10:36.532Z,9.65
2023-04-21T21:13:03.672Z,10.13
2023-04-21T21:15:30.955Z,9.80
2023-04-21T21:17:58.439Z,9.35
2023-04-21T21:20:25.832Z,9.38
2023-04-21T21:22:52.888Z,9.52
2023-04-21T21:25:20.031Z,9.77
2023-04-21T21:27:47.300Z,8.88
2023-04-21T21:30:14.645Z,8.65
2023-04-21T21:32:41.947Z,9.10
2023-04-21T21:35:10.653Z,8.38
2023-04-21T21:37:38.297Z,9.50
2023-04-21T21:40:06.965Z,9.18
2023-04-21T21:42:34.151Z,10.10
2023-04-21T21:45:01.320Z,9.73
2023-04-21T21:47:28.698Z,8.40
2023-04-21T21:49:57.848Z,8.60
2023-04-21T21:52:25.312Z,9.52
2023-04-21T21:54:52.709Z,9.45
2023-04-21T21:57:19.709Z,10.20
2023-04-21T21:59:47.127Z,9.85
2023-04-21T22:02:14.991Z,9.52
2023-04-21T22:04:42.994Z,10.07
2023-04-21T22:07:10.066Z,10.48
2023-04-21T22:09:38.545Z,9.82
2023-04-21T22:12:07.325Z,8.98
2023-04-21T22:14:34.633Z,9.98
2023-04-21T22:17:02.956Z,9.55
2023-04-21T22:19:31.156Z,10.10
2023-04-21T22:21:58.419Z,10.27
2023-04-21T22:24:25.830Z,10.40
2023-04-21T22:26:53.285Z,10.55
2023-04-21T22:29:20.293Z,10.45
2023-04-21T22:31:48.131Z,11.23
2023-04-21T22:34:16.785Z,10.48
2023-04-21T22:36:44.116Z,10.63
2023-04-21T22:39:12.773Z,10.50
2023-04-21T22:41:39.828Z,9.32
2023-04-21T22:44:06.826Z,10.32
2023-04-21T22:46:33.982Z,10.63
2023-04-21T22:49:03.183Z,9.85
2023-04-21T22:51:32.456Z,10.02
2023-04-21T22:54:00.429Z,9.77
2023-04-21T22:56:28.572Z,10.70
2023-04-21T22:58:55.631Z,10.07
2023-04-21T23:01:23.225Z,9.18
2023-04-21T23:03:50.774Z,9.80
2023-04-21T23:06:17.862Z,9.60
2023-04-21T23:08:44.922Z,11.55
2023-04-21T23:11:12.115Z,10.43
2023-04-21T23:13:39.986Z,11.38
2023-04-21T23:16:07.200Z,12.55
2023-04-21T23:18:34.235Z,11.77
2023-04-21T23:21:01.492Z,12.10
2023-04-21T23:23:28.529Z,11.48
2023-04-21T23:25:55.672Z,12.35
2023-04-21T23:28:23.888Z,12.55
2023-04-21T23:30:50.904Z,12.48
2023-04-21T23:33:17.990Z,12.20
2023-04-21T23:35:45.137Z,12.65
2023-04-21T23:38:12.191Z,11.40
2023-04-21T23:40:39.252Z,12.30
2023-04-21T23:43:07.090Z,11.43
2023-04-21T23:45:34.191Z,11.88
2023-04-21T23:48:01.446Z,12.55
2023-04-21T23:50:28.772Z,12.38
2023-04-21T23:52:56.052Z,12.20
2023-04-21T23:55:23.160Z,12.35
2023-04-21T23:57:50.178Z,11.25
